Impacts METAR Board
IDs:

KMSP - Minneapolis-St Paul, MN, US

Updated at: 1700 UTC 22 May 2018
Potential Impact None Slight Moderate High
Time 22/05Z 22/06Z 22/07Z 22/08Z 22/09Z 22/10Z 22/11Z 22/12Z 22/13Z 22/14Z 22/15Z 22/16Z 22/17Z
Temp59 59 59 59 59 59 57 59 60 62 63 65 68
Dewpt55 55 55 55 55 55 55 56 56 55 56 57 58
Altim30.01 30.02 30.01 30.02 30.02 30.01 30.01 30.02 30.04 30.06 30.08 30.08 30.08
VIS10 10 10 10 10 10 10 8 9 10 10 10 10
CIG16 19 18 17 28 55 -- -- 10 15 18 18 22
CoverOVCOVCOVCOVCOVCOVCFEWFEWBKNOVCOVCOVCBKN
FltCatMVFRMVFRMVFRMVFRMVFRVFRVFRVFRMVFRMVFRMVFRMVFRMVFR
WX--------------------------
WDir17018013018015015014001702002202000
WSpd4 4 4 3 5 4 3 3 4 6 5 4 3
WGst-- -- -- -- -- -- -- -- -- -- -- -- --
Raw hourly METARs
KMSP 220453Z COR 17004KT 10SM R30L/P6000FT OVC016 15/13 A3001
KMSP 220553Z 18004KT 10SM OVC019 15/13 A3002 RMK AO2 SLP165 T01500128 10178 20150 402170150 $
KMSP 220653Z 13004KT 10SM OVC018 15/13 A3001 RMK AO2 SLP161 T01500128 $
KMSP 220753Z 18003KT 10SM OVC017 15/13 A3002 RMK AO2 SLP165 T01500128 $
KMSP 220853Z 15005KT 10SM FEW017 OVC028 15/13 A3002 RMK AO2 SLP164 T01500128 55000 $
KMSP 220953Z 15004KT 10SM OVC055 15/13 A3001 RMK AO2 SLP162 T01500128 $
KMSP 221053Z 14003KT 10SM FEW050 14/13 A3001 RMK AO2 SLP162 T01390128 $
KMSP 221203Z VRB03KT 8SM FEW008 15/13 A3002 RMK AO2 T01500133
KMSP 221253Z 17004KT 9SM BKN010 16/13 A3004 RMK AO2 SLP173 T01560133
KMSP 221353Z 20006KT 10SM BKN015 BKN022 OVC038 17/13 A3006 RMK AO2 SLP179 T01670128 $
KMSP 221453Z 22005KT 10SM OVC018 17/13 A3008 RMK AO2 SLP185 T01720133 51020 $
KMSP 221553Z 20004KT 10SM BKN018 OVC041 18/14 A3008 RMK AO2 SLP186 T01830139 $
KMSP 221653Z VRB03KT 10SM BKN022 20/14 A3008 RMK AO2 SLPNO T02000144 $



Page loaded:  17:51 UTC  |   10:51 AM Pacific  |   11:51 AM Mountain  |   12:51 PM Central  |   01:51 PM Eastern

 

ADVISORIES

FORECASTS

FORECASTS

OBSERVATIONS

USER TOOLS

ABOUT US